Aviation Digital Data Service (ADDS)

Output produced by METARs form (1842 UTC 18 June 2019)
found at http://www.aviationweather.gov/metar/data/
 
UKKM 181830Z AUTO 33002MPS 9999 // NCD 22/13 Q1016
TAF UKKM 181105Z 1812/1912 34006MPS 9999 SCT040 TX27/1812Z TN18/1902Z 
     PROB40 
     TEMPO 1812/1818 -TSRA SCT025CB 
     BECMG 1818/1819 VRB01MPS 
     BECMG 1906/1908 03005MPS 
     TEMPO 1909/1912 SCT025CB
       
UKBB 181830Z 36004MPS CAVOK 22/16 Q1016 R88/CLRD// NOSIG
TAF UKBB 181700Z 1818/1918 02003MPS 9999 SCT030 TX30/1912Z TN16/1902Z 
     TEMPO 1820/1904 2000 BR SCT007 
     BECMG 1906/1908 04005G10MPS 
     TEMPO 1908/1918 SCT015CB
       
UKLN 181830Z 17001MPS 9999 SCT///CB 22/18 Q1018 R33/09//70 TEMPO VRB08G13MPS 2100 -TSRAGR BKN007 BKN020CB
TAF UKLN 181702Z 1818/1903 05005MPS 9999 BKN030CB 
     TEMPO 1818/1821 VRB08G13MPS 2100 -TSRAGR BKN007 BKN020CB
       
UKDD 181830Z 36004MPS CAVOK 24/17 Q1014 R08/090070 NOSIG
TAF UKDD 181706Z 1818/1918 36005G10MPS 9999 SCT030CB BKN040 TX33/1912Z
TN18/1902Z 
     PROB40 
     TEMPO 1909/1918 VRB12G18MPS 2100 -TSRA SQ BKN015CB
       
UKLI 181830Z 00000MPS 9999 SCT033CB BKN046 22/18 Q1018 R28/290065 NOSIG
TAF UKLI 181708Z 1818/1903 06003MPS 9999 BKN030 
     TEMPO 1818/1822 VRB08G13MPS 2100 -TSRAGR BKN007 BKN015CB
       
UKDR 181830Z 04002MPS 010V080 CAVOK 23/16 Q1014 R36/09//70 NOSIG
TAF UKDR 181707Z 1818/1918 02004MPS 9999 SCT030CB BKN040 TX30/1912Z TN20/1902Z 
     PROB40 
     TEMPO 1818/1824 3100 -TSRA BKN020CB
       
UKLL 181830Z 09002MPS CAVOK 22/17 Q1018 R13/CLRD// NOSIG
TAF UKLL 181703Z 1818/1918 10003MPS 9999 BKN030 TX26/1910Z TN16/1903Z 
     TEMPO 1909/1918 14008G13MPS 2100 -TSRAGR BKN007 BKN020CB
       
UKDE 181830Z 33003MPS CAVOK 23/16 Q1013 R02R/090070 NOSIG
TAF UKDE 181703Z 1818/1903 36003MPS 9999 SCT030 TX28/1818Z TN19/1903Z 
     PROB40 
     TEMPO 1818/1821 2100 -TSRA BKN020CB
       
UKON 181400Z 05004MPS CAVOK 32/12 Q1013 R04/090068 NOSIG
TAF UKON 181103Z 1812/1821 05003MPS 9999 SCT025CB TX32/1813Z TN23/1821Z
       
UKOO 181830Z 24002MPS CAVOK 25/12 Q1013 R16/090060 NOSIG
TAF UKOO 181705Z 1818/1918 04003MPS 6000 SCT010 SCT020CB TX31/1912Z TN22/1902Z 
     PROB40 
     TEMPO 1818/1906 2100 -TSRA 
     PROB40 
     TEMPO 1906/1918 VRB10G17MPS 1000 TSRAGR SQ BKN003 SCT015CB
       
UKHH 181830Z 29002MPS CAVOK 25/19 Q1013 R25/0///81 NOSIG
TAF UKHH 181704Z 1818/1918 31003MPS 9999 SCT030CB TX30/1912Z TN16/1902Z 
     PROB40 
     TEMPO 1818/1821 2100 -TSRA SCT007 BKN020CB
       
UKLR 181500Z 03003MPS CAVOK 25/15 Q1018 NOSIG
TAF UKLR 181110Z 1812/1821 36003MPS 9999 BKN026 SCT030CB TX26/1813Z TN18/1821Z 
     PROB40 
     TEMPO 1812/1817 -TSRA
       
UKLU 181500Z 27003MPS 230V310 9999 FEW///TCU 28/19 Q1015 R10/090070 NOSIG
TAF UKLU 181413Z 1815/1824 30003MPS 9999 NSC TX28/1815Z TN19/1824Z 
     TEMPO 1815/1821 VRB09G14MPS 2100 -TSRAGR SCT007 BKN030CB
       
UKKK 181830Z 01003MPS 330V040 CAVOK 24/16 Q1016 R26/70D NOSIG
TAF UKKK 181702Z 1818/1918 36003MPS 9999 SCT030 TX28/1912Z TN17/1903Z 
     TEMPO 1820/1905 VRB01MPS 2000 BR SCT007 
     BECMG 1905/1907 04003G08MPS 
     TEMPO 1909/1918 07007G12MPS SCT020CB